Decoded Metar for RKPK (KIMHAE in KOREA) (IATA:PUS) | Meteo·Mobile Aviation Weather
aviador You're here:

RKPK Decoded Metar

KIMHAE in KOREA
Report Time2018-08-22 04:00:00
UTC Time2018-08-22 04:29:31
Flight Rules vfr VFR
Wind080° at 18 kt
W.Decomp.*RWY 36: 0.9 kt HW 18.0 kt RCW
W.Rank080° ranks 33
Current wind is above 080° avg. (6.4)
Visibility9999 m
Phenomena:N/A
Clouds:Scattered 030 Hf
Broken 200 Hf
Expected CloudBase > 3,600 ft AGL from Temp-Dew spread
Ceiling20,000 ft
Temp32°C (ISA +17)
Dew Point23°C (59% RH)
Heat Index36.8°C
AAT30.7°C
QNH1005 hPa
Density Alt2,638 ft
Elevation49 ft
Report Wrong Elevation
Raw Report
METAR RKPK 220400Z 08018KT 9999 SCT030 BKN200 32/23 Q1005 NOSIG=

Extra information for RKPK:More info

Metar Taf Metar & Taf Last 4 Metars F.Rules Stats Wind Profile Meteogram Temp Stats Airport Information Weather charts Add Link Nearby VenuesMetar ALERT Operation Metar Decoded Social comments